sensor_id;sensor_type;location;lat;lon;timestamp;P1;durP1;ratioP1;P2;durP2;ratioP2
6288;SDS011;3177;49.880;8.836;2023-03-07T00:00:16;23.17;;;12.27;;
6288;SDS011;3177;49.880;8.836;2023-03-07T00:02:45;21.43;;;13.53;;
6288;SDS011;3177;49.880;8.836;2023-03-07T00:05:15;23.47;;;15.60;;
6288;SDS011;3177;49.880;8.836;2023-03-07T00:07:42;14.93;;;10.27;;
6288;SDS011;3177;49.880;8.836;2023-03-07T00:10:10;20.97;;;14.97;;
6288;SDS011;3177;49.880;8.836;2023-03-07T00:12:37;24.47;;;14.73;;
6288;SDS011;3177;49.880;8.836;2023-03-07T00:15:04;26.43;;;16.67;;
6288;SDS011;3177;49.880;8.836;2023-03-07T00:17:34;13.40;;;9.40;;
6288;SDS011;3177;49.880;8.836;2023-03-07T00:20:02;24.93;;;15.97;;
6288;SDS011;3177;49.880;8.836;2023-03-07T00:22:31;17.23;;;11.80;;
6288;SDS011;3177;49.880;8.836;2023-03-07T00:24:58;13.57;;;10.10;;
6288;SDS011;3177;49.880;8.836;2023-03-07T00:27:25;24.80;;;16.03;;
6288;SDS011;3177;49.880;8.836;2023-03-07T00:29:52;15.43;;;9.13;;
6288;SDS011;3177;49.880;8.836;2023-03-07T00:32:19;16.30;;;11.00;;
6288;SDS011;3177;49.880;8.836;2023-03-07T00:34:46;20.37;;;12.90;;
6288;SDS011;3177;49.880;8.836;2023-03-07T00:37:14;20.03;;;11.37;;
6288;SDS011;3177;49.880;8.836;2023-03-07T00:39:42;18.30;;;11.40;;
6288;SDS011;3177;49.880;8.836;2023-03-07T00:42:09;20.97;;;13.50;;
6288;SDS011;3177;49.880;8.836;2023-03-07T00:44:36;23.87;;;13.90;;
6288;SDS011;3177;49.880;8.836;2023-03-07T00:47:03;27.30;;;16.40;;
6288;SDS011;3177;49.880;8.836;2023-03-07T00:49:30;21.50;;;11.97;;
6288;SDS011;3177;49.880;8.836;2023-03-07T00:51:57;21.67;;;14.20;;
6288;SDS011;3177;49.880;8.836;2023-03-07T00:54:25;18.47;;;12.57;;
6288;SDS011;3177;49.880;8.836;2023-03-07T00:56:52;22.37;;;12.80;;
6288;SDS011;3177;49.880;8.836;2023-03-07T00:59:19;26.97;;;17.53;;
6288;SDS011;3177;49.880;8.836;2023-03-07T01:01:46;22.23;;;13.57;;
6288;SDS011;3177;49.880;8.836;2023-03-07T01:04:13;26.80;;;14.20;;
6288;SDS011;3177;49.880;8.836;2023-03-07T01:06:40;23.57;;;14.37;;
6288;SDS011;3177;49.880;8.836;2023-03-07T01:09:08;25.57;;;14.83;;
6288;SDS011;3177;49.880;8.836;2023-03-07T01:11:36;17.70;;;9.93;;
6288;SDS011;3177;49.880;8.836;2023-03-07T01:14:04;16.60;;;9.60;;
6288;SDS011;3177;49.880;8.836;2023-03-07T01:16:32;18.33;;;11.87;;
6288;SDS011;3177;49.880;8.836;2023-03-07T01:19:00;22.10;;;13.37;;
6288;SDS011;3177;49.880;8.836;2023-03-07T01:21:28;23.80;;;14.10;;
6288;SDS011;3177;49.880;8.836;2023-03-07T01:23:56;26.50;;;15.30;;
6288;SDS011;3177;49.880;8.836;2023-03-07T01:26:24;24.77;;;15.60;;
6288;SDS011;3177;49.880;8.836;2023-03-07T01:28:53;21.77;;;13.77;;
6288;SDS011;3177;49.880;8.836;2023-03-07T01:31:20;20.53;;;12.67;;
6288;SDS011;3177;49.880;8.836;2023-03-07T01:33:48;27.13;;;16.83;;
6288;SDS011;3177;49.880;8.836;2023-03-07T01:36:16;21.40;;;13.83;;
6288;SDS011;3177;49.880;8.836;2023-03-07T01:38:43;25.47;;;15.07;;
6288;SDS011;3177;49.880;8.836;2023-03-07T01:41:11;24.17;;;13.93;;
6288;SDS011;3177;49.880;8.836;2023-03-07T01:43:38;18.90;;;12.33;;
6288;SDS011;3177;49.880;8.836;2023-03-07T01:48:53;24.60;;;16.33;;
6288;SDS011;3177;49.880;8.836;2023-03-07T01:51:20;23.20;;;14.33;;
6288;SDS011;3177;49.880;8.836;2023-03-07T01:53:48;26.90;;;15.53;;
6288;SDS011;3177;49.880;8.836;2023-03-07T01:56:15;30.10;;;17.77;;
6288;SDS011;3177;49.880;8.836;2023-03-07T01:58:43;25.67;;;15.73;;
6288;SDS011;3177;49.880;8.836;2023-03-07T02:01:11;25.03;;;16.10;;
6288;SDS011;3177;49.880;8.836;2023-03-07T02:03:41;23.70;;;14.77;;
6288;SDS011;3177;49.880;8.836;2023-03-07T02:06:11;18.27;;;10.53;;
6288;SDS011;3177;49.880;8.836;2023-03-07T02:08:38;24.23;;;16.47;;
6288;SDS011;3177;49.880;8.836;2023-03-07T03:39:47;19.37;;;12.63;;
6288;SDS011;3177;49.880;8.836;2023-03-07T03:42:14;20.13;;;13.70;;
6288;SDS011;3177;49.880;8.836;2023-03-07T03:44:41;9.60;;;7.83;;
6288;SDS011;3177;49.880;8.836;2023-03-07T03:47:08;14.53;;;10.03;;
6288;SDS011;3177;49.880;8.836;2023-03-07T03:49:36;13.83;;;9.03;;
6288;SDS011;3177;49.880;8.836;2023-03-07T03:52:03;8.10;;;7.03;;
6288;SDS011;3177;49.880;8.836;2023-03-07T03:54:30;16.23;;;11.67;;
6288;SDS011;3177;49.880;8.836;2023-03-07T03:56:59;15.07;;;11.07;;
6288;SDS011;3177;49.880;8.836;2023-03-07T03:59:26;15.83;;;8.83;;
6288;SDS011;3177;49.880;8.836;2023-03-07T04:01:53;14.97;;;11.23;;
6288;SDS011;3177;49.880;8.836;2023-03-07T04:04:20;12.53;;;9.23;;
6288;SDS011;3177;49.880;8.836;2023-03-07T04:06:47;15.73;;;9.10;;
6288;SDS011;3177;49.880;8.836;2023-03-07T04:09:15;19.10;;;11.73;;
6288;SDS011;3177;49.880;8.836;2023-03-07T04:11:42;15.33;;;10.57;;
6288;SDS011;3177;49.880;8.836;2023-03-07T04:14:10;20.60;;;12.93;;
6288;SDS011;3177;49.880;8.836;2023-03-07T04:16:37;25.50;;;15.97;;
6288;SDS011;3177;49.880;8.836;2023-03-07T04:19:04;14.43;;;11.43;;
6288;SDS011;3177;49.880;8.836;2023-03-07T04:21:32;21.23;;;14.53;;
6288;SDS011;3177;49.880;8.836;2023-03-07T04:23:59;9.07;;;6.93;;
6288;SDS011;3177;49.880;8.836;2023-03-07T04:26:26;21.07;;;12.20;;
6288;SDS011;3177;49.880;8.836;2023-03-07T04:28:53;14.70;;;10.57;;
6288;SDS011;3177;49.880;8.836;2023-03-07T04:31:22;17.00;;;10.97;;
6288;SDS011;3177;49.880;8.836;2023-03-07T04:33:50;17.87;;;11.47;;
6288;SDS011;3177;49.880;8.836;2023-03-07T04:36:18;18.60;;;12.23;;
6288;SDS011;3177;49.880;8.836;2023-03-07T04:38:46;14.37;;;10.63;;
6288;SDS011;3177;49.880;8.836;2023-03-07T04:41:14;11.20;;;8.33;;
6288;SDS011;3177;49.880;8.836;2023-03-07T04:43:41;15.03;;;10.47;;
6288;SDS011;3177;49.880;8.836;2023-03-07T04:46:09;12.70;;;9.60;;
6288;SDS011;3177;49.880;8.836;2023-03-07T04:48:38;15.63;;;12.00;;
6288;SDS011;3177;49.880;8.836;2023-03-07T04:51:05;12.13;;;8.13;;
6288;SDS011;3177;49.880;8.836;2023-03-07T04:53:32;20.40;;;14.60;;
6288;SDS011;3177;49.880;8.836;2023-03-07T04:55:59;14.40;;;9.63;;
6288;SDS011;3177;49.880;8.836;2023-03-07T04:58:27;14.57;;;11.27;;
6288;SDS011;3177;49.880;8.836;2023-03-07T05:00:54;17.60;;;11.57;;
6288;SDS011;3177;49.880;8.836;2023-03-07T05:03:23;16.50;;;10.77;;
6288;SDS011;3177;49.880;8.836;2023-03-07T05:05:52;15.90;;;10.97;;
6288;SDS011;3177;49.880;8.836;2023-03-07T05:08:19;16.20;;;10.00;;
6288;SDS011;3177;49.880;8.836;2023-03-07T05:10:46;13.70;;;8.50;;
6288;SDS011;3177;49.880;8.836;2023-03-07T05:13:14;17.37;;;11.93;;
6288;SDS011;3177;49.880;8.836;2023-03-07T05:15:41;22.17;;;13.60;;
6288;SDS011;3177;49.880;8.836;2023-03-07T05:18:08;19.57;;;12.60;;
6288;SDS011;3177;49.880;8.836;2023-03-07T05:20:35;24.87;;;15.70;;
6288;SDS011;3177;49.880;8.836;2023-03-07T05:23:03;12.07;;;9.27;;
6288;SDS011;3177;49.880;8.836;2023-03-07T05:25:30;24.17;;;15.37;;
6288;SDS011;3177;49.880;8.836;2023-03-07T05:27:57;17.57;;;12.37;;
6288;SDS011;3177;49.880;8.836;2023-03-07T05:30:24;16.20;;;11.17;;
6288;SDS011;3177;49.880;8.836;2023-03-07T05:32:51;20.90;;;14.80;;
6288;SDS011;3177;49.880;8.836;2023-03-07T05:35:18;9.50;;;7.13;;
6288;SDS011;3177;49.880;8.836;2023-03-07T05:37:48;22.63;;;14.07;;
6288;SDS011;3177;49.880;8.836;2023-03-07T05:40:17;22.60;;;16.10;;
6288;SDS011;3177;49.880;8.836;2023-03-07T05:42:44;15.87;;;12.10;;
6288;SDS011;3177;49.880;8.836;2023-03-07T05:45:13;16.93;;;10.90;;
6288;SDS011;3177;49.880;8.836;2023-03-07T05:47:40;21.47;;;13.70;;
6288;SDS011;3177;49.880;8.836;2023-03-07T05:50:08;13.60;;;9.20;;
6288;SDS011;3177;49.880;8.836;2023-03-07T05:52:35;22.23;;;13.17;;
6288;SDS011;3177;49.880;8.836;2023-03-07T05:55:04;18.00;;;12.27;;
6288;SDS011;3177;49.880;8.836;2023-03-07T05:57:32;15.77;;;11.83;;
6288;SDS011;3177;49.880;8.836;2023-03-07T05:59:59;19.93;;;14.57;;
6288;SDS011;3177;49.880;8.836;2023-03-07T06:02:30;22.83;;;13.30;;
6288;SDS011;3177;49.880;8.836;2023-03-07T06:04:57;21.03;;;15.80;;
6288;SDS011;3177;49.880;8.836;2023-03-07T06:07:24;18.67;;;12.77;;
6288;SDS011;3177;49.880;8.836;2023-03-07T06:09:51;19.17;;;14.93;;
6288;SDS011;3177;49.880;8.836;2023-03-07T06:12:18;13.70;;;9.77;;
6288;SDS011;3177;49.880;8.836;2023-03-07T06:14:46;6.37;;;5.60;;
6288;SDS011;3177;49.880;8.836;2023-03-07T06:17:13;18.83;;;13.37;;
6288;SDS011;3177;49.880;8.836;2023-03-07T06:19:40;15.50;;;11.30;;
6288;SDS011;3177;49.880;8.836;2023-03-07T06:22:07;20.37;;;12.60;;
6288;SDS011;3177;49.880;8.836;2023-03-07T06:24:34;17.17;;;12.63;;
6288;SDS011;3177;49.880;8.836;2023-03-07T06:27:02;34.60;;;9.47;;
6288;SDS011;3177;49.880;8.836;2023-03-07T06:29:29;18.27;;;12.87;;
6288;SDS011;3177;49.880;8.836;2023-03-07T06:31:58;15.57;;;10.67;;
6288;SDS011;3177;49.880;8.836;2023-03-07T06:34:25;20.90;;;14.10;;
6288;SDS011;3177;49.880;8.836;2023-03-07T06:36:52;20.07;;;14.60;;
6288;SDS011;3177;49.880;8.836;2023-03-07T06:39:19;13.73;;;8.37;;
6288;SDS011;3177;49.880;8.836;2023-03-07T06:41:46;17.20;;;11.87;;
6288;SDS011;3177;49.880;8.836;2023-03-07T06:44:13;16.47;;;10.03;;
6288;SDS011;3177;49.880;8.836;2023-03-07T06:46:40;18.60;;;12.60;;
6288;SDS011;3177;49.880;8.836;2023-03-07T06:49:09;19.17;;;11.83;;
6288;SDS011;3177;49.880;8.836;2023-03-07T06:51:36;17.20;;;12.33;;
6288;SDS011;3177;49.880;8.836;2023-03-07T06:54:03;13.73;;;9.30;;
6288;SDS011;3177;49.880;8.836;2023-03-07T06:56:30;19.90;;;13.03;;
6288;SDS011;3177;49.880;8.836;2023-03-07T06:58:58;17.60;;;10.47;;
6288;SDS011;3177;49.880;8.836;2023-03-07T07:01:25;12.60;;;8.70;;
6288;SDS011;3177;49.880;8.836;2023-03-07T07:03:52;13.40;;;8.77;;
6288;SDS011;3177;49.880;8.836;2023-03-07T07:06:21;12.73;;;8.43;;
6288;SDS011;3177;49.880;8.836;2023-03-07T07:08:48;13.60;;;9.23;;
6288;SDS011;3177;49.880;8.836;2023-03-07T07:11:15;10.57;;;6.90;;
6288;SDS011;3177;49.880;8.836;2023-03-07T07:13:42;16.17;;;10.80;;
6288;SDS011;3177;49.880;8.836;2023-03-07T07:16:10;14.73;;;10.20;;
6288;SDS011;3177;49.880;8.836;2023-03-07T07:18:37;17.03;;;9.73;;
6288;SDS011;3177;49.880;8.836;2023-03-07T07:21:04;12.60;;;9.20;;
6288;SDS011;3177;49.880;8.836;2023-03-07T07:23:33;10.23;;;8.17;;
6288;SDS011;3177;49.880;8.836;2023-03-07T07:26:01;17.13;;;12.03;;
6288;SDS011;3177;49.880;8.836;2023-03-07T07:28:28;11.43;;;7.87;;
6288;SDS011;3177;49.880;8.836;2023-03-07T07:30:55;15.17;;;10.53;;
6288;SDS011;3177;49.880;8.836;2023-03-07T07:33:22;16.77;;;11.03;;
6288;SDS011;3177;49.880;8.836;2023-03-07T07:35:49;15.40;;;10.80;;
6288;SDS011;3177;49.880;8.836;2023-03-07T07:38:16;18.40;;;11.90;;
6288;SDS011;3177;49.880;8.836;2023-03-07T07:40:45;17.03;;;11.03;;
6288;SDS011;3177;49.880;8.836;2023-03-07T07:43:13;13.10;;;8.03;;
6288;SDS011;3177;49.880;8.836;2023-03-07T07:45:40;12.57;;;8.80;;
6288;SDS011;3177;49.880;8.836;2023-03-07T07:48:07;13.93;;;8.10;;
6288;SDS011;3177;49.880;8.836;2023-03-07T07:50:34;16.77;;;11.37;;
6288;SDS011;3177;49.880;8.836;2023-03-07T07:53:01;16.00;;;9.73;;
6288;SDS011;3177;49.880;8.836;2023-03-07T07:55:29;8.93;;;7.03;;
6288;SDS011;3177;49.880;8.836;2023-03-07T07:57:57;10.90;;;9.47;;
6288;SDS011;3177;49.880;8.836;2023-03-07T08:00:24;6.47;;;5.83;;
6288;SDS011;3177;49.880;8.836;2023-03-07T08:02:51;15.47;;;10.63;;
6288;SDS011;3177;49.880;8.836;2023-03-07T08:05:19;12.73;;;8.93;;
6288;SDS011;3177;49.880;8.836;2023-03-07T08:07:46;12.53;;;9.30;;
6288;SDS011;3177;49.880;8.836;2023-03-07T08:10:14;13.53;;;9.97;;
6288;SDS011;3177;49.880;8.836;2023-03-07T08:12:41;9.47;;;6.93;;
6288;SDS011;3177;49.880;8.836;2023-03-07T08:15:10;10.60;;;8.20;;
6288;SDS011;3177;49.880;8.836;2023-03-07T08:17:37;10.93;;;8.10;;
6288;SDS011;3177;49.880;8.836;2023-03-07T08:20:05;10.23;;;6.53;;
6288;SDS011;3177;49.880;8.836;2023-03-07T08:22:34;13.63;;;8.93;;
6288;SDS011;3177;49.880;8.836;2023-03-07T08:25:01;13.47;;;8.50;;
6288;SDS011;3177;49.880;8.836;2023-03-07T08:27:28;10.93;;;7.77;;
6288;SDS011;3177;49.880;8.836;2023-03-07T08:29:56;14.03;;;9.77;;
6288;SDS011;3177;49.880;8.836;2023-03-07T08:32:24;12.53;;;8.87;;
6288;SDS011;3177;49.880;8.836;2023-03-07T08:34:51;7.97;;;6.73;;
6288;SDS011;3177;49.880;8.836;2023-03-07T08:37:18;13.60;;;9.57;;
6288;SDS011;3177;49.880;8.836;2023-03-07T08:39:45;11.17;;;9.53;;
6288;SDS011;3177;49.880;8.836;2023-03-07T08:42:12;11.00;;;8.37;;
6288;SDS011;3177;49.880;8.836;2023-03-07T08:44:39;14.23;;;8.10;;
6288;SDS011;3177;49.880;8.836;2023-03-07T08:47:06;9.23;;;6.97;;
6288;SDS011;3177;49.880;8.836;2023-03-07T08:49:36;9.03;;;7.07;;
6288;SDS011;3177;49.880;8.836;2023-03-07T08:52:04;13.27;;;8.70;;
6288;SDS011;3177;49.880;8.836;2023-03-07T08:54:31;8.77;;;7.77;;
6288;SDS011;3177;49.880;8.836;2023-03-07T08:56:58;11.40;;;9.23;;
6288;SDS011;3177;49.880;8.836;2023-03-07T08:59:26;10.57;;;8.47;;
6288;SDS011;3177;49.880;8.836;2023-03-07T09:01:53;10.20;;;7.60;;
6288;SDS011;3177;49.880;8.836;2023-03-07T09:04:22;10.53;;;7.30;;
6288;SDS011;3177;49.880;8.836;2023-03-07T09:06:50;11.53;;;8.47;;
6288;SDS011;3177;49.880;8.836;2023-03-07T09:09:17;10.00;;;7.63;;
6288;SDS011;3177;49.880;8.836;2023-03-07T09:11:44;8.93;;;8.07;;
6288;SDS011;3177;49.880;8.836;2023-03-07T09:14:11;11.70;;;7.77;;
6288;SDS011;3177;49.880;8.836;2023-03-07T09:16:39;10.03;;;7.83;;
6288;SDS011;3177;49.880;8.836;2023-03-07T09:19:06;13.90;;;8.27;;
6288;SDS011;3177;49.880;8.836;2023-03-07T09:21:33;8.33;;;7.17;;
6288;SDS011;3177;49.880;8.836;2023-03-07T09:24:05;10.13;;;6.93;;
6288;SDS011;3177;49.880;8.836;2023-03-07T09:26:33;12.73;;;7.13;;
6288;SDS011;3177;49.880;8.836;2023-03-07T09:29:00;9.13;;;7.93;;
6288;SDS011;3177;49.880;8.836;2023-03-07T09:31:28;10.10;;;6.77;;
6288;SDS011;3177;49.880;8.836;2023-03-07T09:33:55;8.93;;;7.00;;
6288;SDS011;3177;49.880;8.836;2023-03-07T09:36:22;9.17;;;6.80;;
6288;SDS011;3177;49.880;8.836;2023-03-07T09:38:49;9.17;;;8.07;;
6288;SDS011;3177;49.880;8.836;2023-03-07T09:41:29;6.40;;;5.10;;
6288;SDS011;3177;49.880;8.836;2023-03-07T09:43:59;8.63;;;7.13;;
6288;SDS011;3177;49.880;8.836;2023-03-07T09:46:30;8.93;;;7.20;;
6288;SDS011;3177;49.880;8.836;2023-03-07T09:49:09;7.53;;;5.80;;
6288;SDS011;3177;49.880;8.836;2023-03-07T09:51:41;10.30;;;6.90;;
6288;SDS011;3177;49.880;8.836;2023-03-07T09:54:09;9.27;;;7.03;;
6288;SDS011;3177;49.880;8.836;2023-03-07T09:56:40;7.30;;;6.37;;
6288;SDS011;3177;49.880;8.836;2023-03-07T09:59:12;6.07;;;5.47;;
6288;SDS011;3177;49.880;8.836;2023-03-07T10:01:40;10.50;;;7.17;;
6288;SDS011;3177;49.880;8.836;2023-03-07T10:04:11;8.07;;;6.40;;
6288;SDS011;3177;49.880;8.836;2023-03-07T10:06:40;9.53;;;6.47;;
6288;SDS011;3177;49.880;8.836;2023-03-07T10:09:10;9.73;;;6.67;;
6288;SDS011;3177;49.880;8.836;2023-03-07T10:11:47;9.47;;;6.40;;
6288;SDS011;3177;49.880;8.836;2023-03-07T10:14:32;5.73;;;4.77;;
6288;SDS011;3177;49.880;8.836;2023-03-07T10:17:03;6.57;;;5.60;;
6288;SDS011;3177;49.880;8.836;2023-03-07T10:19:34;7.20;;;5.83;;
6288;SDS011;3177;49.880;8.836;2023-03-07T10:22:04;7.07;;;5.70;;
6288;SDS011;3177;49.880;8.836;2023-03-07T10:24:42;6.13;;;4.90;;
6288;SDS011;3177;49.880;8.836;2023-03-07T10:27:14;9.17;;;5.77;;
6288;SDS011;3177;49.880;8.836;2023-03-07T10:29:44;6.80;;;5.60;;
6288;SDS011;3177;49.880;8.836;2023-03-07T10:32:22;6.20;;;4.90;;
6288;SDS011;3177;49.880;8.836;2023-03-07T10:34:54;7.47;;;5.10;;
6288;SDS011;3177;49.880;8.836;2023-03-07T10:37:25;7.47;;;4.93;;
6288;SDS011;3177;49.880;8.836;2023-03-07T10:39:55;7.37;;;5.53;;
6288;SDS011;3177;49.880;8.836;2023-03-07T10:42:29;7.37;;;5.40;;
6288;SDS011;3177;49.880;8.836;2023-03-07T10:44:57;6.87;;;5.67;;
6288;SDS011;3177;49.880;8.836;2023-03-07T10:47:25;5.90;;;5.13;;
6288;SDS011;3177;49.880;8.836;2023-03-07T10:49:53;5.23;;;4.60;;
6288;SDS011;3177;49.880;8.836;2023-03-07T10:52:29;6.13;;;5.30;;
6288;SDS011;3177;49.880;8.836;2023-03-07T10:58:12;4.80;;;4.40;;
6288;SDS011;3177;49.880;8.836;2023-03-07T11:00:40;7.33;;;5.63;;
6288;SDS011;3177;49.880;8.836;2023-03-07T11:03:19;6.47;;;5.23;;
6288;SDS011;3177;49.880;8.836;2023-03-07T11:05:47;5.80;;;4.90;;
6288;SDS011;3177;49.880;8.836;2023-03-07T11:08:24;8.67;;;5.70;;
6288;SDS011;3177;49.880;8.836;2023-03-07T11:10:52;8.07;;;4.93;;
6288;SDS011;3177;49.880;8.836;2023-03-07T11:13:21;8.03;;;4.97;;
6288;SDS011;3177;49.880;8.836;2023-03-07T11:15:49;6.93;;;5.27;;
6288;SDS011;3177;49.880;8.836;2023-03-07T11:18:27;5.27;;;4.77;;
6288;SDS011;3177;49.880;8.836;2023-03-07T11:20:55;5.37;;;4.63;;
6288;SDS011;3177;49.880;8.836;2023-03-07T11:23:23;6.10;;;4.60;;
6288;SDS011;3177;49.880;8.836;2023-03-07T11:25:51;4.00;;;3.37;;
6288;SDS011;3177;49.880;8.836;2023-03-07T11:28:25;5.50;;;4.93;;
6288;SDS011;3177;49.880;8.836;2023-03-07T11:30:56;5.23;;;4.60;;
6288;SDS011;3177;49.880;8.836;2023-03-07T11:33:27;6.77;;;4.90;;
6288;SDS011;3177;49.880;8.836;2023-03-07T11:36:04;6.17;;;4.90;;
6288;SDS011;3177;49.880;8.836;2023-03-07T11:38:37;6.77;;;4.23;;
6288;SDS011;3177;49.880;8.836;2023-03-07T11:41:09;5.37;;;4.77;;
6288;SDS011;3177;49.880;8.836;2023-03-07T11:43:42;4.40;;;4.00;;
6288;SDS011;3177;49.880;8.836;2023-03-07T11:46:14;5.40;;;4.70;;
6288;SDS011;3177;49.880;8.836;2023-03-07T11:48:50;7.73;;;4.97;;
6288;SDS011;3177;49.880;8.836;2023-03-07T11:51:26;4.93;;;4.37;;
6288;SDS011;3177;49.880;8.836;2023-03-07T11:54:00;7.13;;;3.30;;
6288;SDS011;3177;49.880;8.836;2023-03-07T11:56:31;4.33;;;3.93;;
6288;SDS011;3177;49.880;8.836;2023-03-07T12:01:49;6.07;;;5.10;;
6288;SDS011;3177;49.880;8.836;2023-03-07T12:07:13;6.57;;;5.07;;
6288;SDS011;3177;49.880;8.836;2023-03-07T12:09:47;6.10;;;4.87;;
6288;SDS011;3177;49.880;8.836;2023-03-07T12:12:22;6.93;;;4.57;;
6288;SDS011;3177;49.880;8.836;2023-03-07T12:14:54;5.07;;;4.30;;
6288;SDS011;3177;49.880;8.836;2023-03-07T12:17:29;5.73;;;4.37;;
6288;SDS011;3177;49.880;8.836;2023-03-07T12:20:04;4.20;;;3.27;;
6288;SDS011;3177;49.880;8.836;2023-03-07T12:22:37;4.87;;;4.27;;
6288;SDS011;3177;49.880;8.836;2023-03-07T12:25:17;6.50;;;5.00;;
6288;SDS011;3177;49.880;8.836;2023-03-07T12:27:46;8.27;;;5.43;;
6288;SDS011;3177;49.880;8.836;2023-03-07T12:30:17;5.77;;;4.33;;
6288;SDS011;3177;49.880;8.836;2023-03-07T12:32:46;6.60;;;4.97;;
6288;SDS011;3177;49.880;8.836;2023-03-07T12:35:16;6.60;;;5.03;;
6288;SDS011;3177;49.880;8.836;2023-03-07T12:37:44;5.20;;;4.70;;
6288;SDS011;3177;49.880;8.836;2023-03-07T12:40:16;6.97;;;5.70;;
6288;SDS011;3177;49.880;8.836;2023-03-07T12:42:47;7.47;;;5.33;;
6288;SDS011;3177;49.880;8.836;2023-03-07T12:45:17;6.83;;;5.20;;
6288;SDS011;3177;49.880;8.836;2023-03-07T12:47:50;6.83;;;5.57;;
6288;SDS011;3177;49.880;8.836;2023-03-07T12:50:21;5.30;;;4.80;;
6288;SDS011;3177;49.880;8.836;2023-03-07T12:52:50;6.13;;;5.00;;
6288;SDS011;3177;49.880;8.836;2023-03-07T12:55:20;5.53;;;4.37;;
6288;SDS011;3177;49.880;8.836;2023-03-07T12:57:51;7.27;;;4.97;;
6288;SDS011;3177;49.880;8.836;2023-03-07T13:00:19;6.00;;;4.53;;
6288;SDS011;3177;49.880;8.836;2023-03-07T13:02:51;5.10;;;4.60;;
6288;SDS011;3177;49.880;8.836;2023-03-07T13:05:22;8.23;;;5.70;;
6288;SDS011;3177;49.880;8.836;2023-03-07T13:07:50;5.90;;;4.97;;
6288;SDS011;3177;49.880;8.836;2023-03-07T13:10:18;6.00;;;5.40;;
6288;SDS011;3177;49.880;8.836;2023-03-07T13:12:46;7.93;;;5.70;;
6288;SDS011;3177;49.880;8.836;2023-03-07T13:18:23;8.53;;;6.10;;
6288;SDS011;3177;49.880;8.836;2023-03-07T13:21:11;10.63;;;7.70;;
6288;SDS011;3177;49.880;8.836;2023-03-07T13:23:38;5.67;;;4.77;;
6288;SDS011;3177;49.880;8.836;2023-03-07T13:26:11;7.67;;;4.87;;
6288;SDS011;3177;49.880;8.836;2023-03-07T13:28:43;9.73;;;7.53;;
6288;SDS011;3177;49.880;8.836;2023-03-07T13:33:56;7.17;;;6.07;;
6288;SDS011;3177;49.880;8.836;2023-03-07T13:36:43;7.67;;;5.70;;
6288;SDS011;3177;49.880;8.836;2023-03-07T13:41:52;9.37;;;6.90;;
6288;SDS011;3177;49.880;8.836;2023-03-07T13:44:35;7.70;;;6.43;;
6288;SDS011;3177;49.880;8.836;2023-03-07T13:47:03;7.27;;;5.00;;
6288;SDS011;3177;49.880;8.836;2023-03-07T13:49:42;8.23;;;6.57;;
6288;SDS011;3177;49.880;8.836;2023-03-07T13:55:28;9.37;;;6.83;;
6288;SDS011;3177;49.880;8.836;2023-03-07T13:57:44;7.17;;;5.43;;
6288;SDS011;3177;49.880;8.836;2023-03-07T14:00:21;8.70;;;6.40;;
6288;SDS011;3177;49.880;8.836;2023-03-07T14:02:50;4.63;;;4.23;;
6288;SDS011;3177;49.880;8.836;2023-03-07T14:05:17;6.50;;;5.13;;
6288;SDS011;3177;49.880;8.836;2023-03-07T14:07:44;9.23;;;6.67;;
6288;SDS011;3177;49.880;8.836;2023-03-07T14:10:15;7.23;;;5.90;;
6288;SDS011;3177;49.880;8.836;2023-03-07T14:12:48;6.80;;;5.23;;
6288;SDS011;3177;49.880;8.836;2023-03-07T14:15:22;8.90;;;6.67;;
6288;SDS011;3177;49.880;8.836;2023-03-07T14:17:54;8.60;;;6.27;;
6288;SDS011;3177;49.880;8.836;2023-03-07T14:20:26;9.33;;;6.97;;
6288;SDS011;3177;49.880;8.836;2023-03-07T14:22:58;7.73;;;6.20;;
6288;SDS011;3177;49.880;8.836;2023-03-07T14:25:29;11.23;;;6.57;;
6288;SDS011;3177;49.880;8.836;2023-03-07T14:27:59;7.77;;;6.90;;
6288;SDS011;3177;49.880;8.836;2023-03-07T14:30:26;7.47;;;6.30;;
6288;SDS011;3177;49.880;8.836;2023-03-07T14:32:54;9.00;;;6.30;;
6288;SDS011;3177;49.880;8.836;2023-03-07T14:35:31;8.07;;;6.40;;
6288;SDS011;3177;49.880;8.836;2023-03-07T14:37:58;7.73;;;6.50;;
6288;SDS011;3177;49.880;8.836;2023-03-07T14:40:27;7.93;;;6.20;;
6288;SDS011;3177;49.880;8.836;2023-03-07T14:43:11;6.93;;;6.00;;
6288;SDS011;3177;49.880;8.836;2023-03-07T14:45:41;12.30;;;6.80;;
6288;SDS011;3177;49.880;8.836;2023-03-07T14:48:18;8.47;;;6.10;;
6288;SDS011;3177;49.880;8.836;2023-03-07T14:50:48;8.40;;;6.10;;
6288;SDS011;3177;49.880;8.836;2023-03-07T14:53:16;6.90;;;5.50;;
6288;SDS011;3177;49.880;8.836;2023-03-07T14:55:45;8.70;;;7.10;;
6288;SDS011;3177;49.880;8.836;2023-03-07T14:58:15;6.80;;;5.50;;
6288;SDS011;3177;49.880;8.836;2023-03-07T15:00:43;9.27;;;6.00;;
6288;SDS011;3177;49.880;8.836;2023-03-07T15:03:11;9.97;;;7.20;;
6288;SDS011;3177;49.880;8.836;2023-03-07T15:05:46;8.20;;;6.37;;
6288;SDS011;3177;49.880;8.836;2023-03-07T15:08:17;4.70;;;3.80;;
6288;SDS011;3177;49.880;8.836;2023-03-07T15:10:44;8.33;;;6.10;;
6288;SDS011;3177;49.880;8.836;2023-03-07T15:13:15;7.03;;;4.90;;
6288;SDS011;3177;49.880;8.836;2023-03-07T15:15:47;9.30;;;5.93;;
6288;SDS011;3177;49.880;8.836;2023-03-07T15:18:17;7.80;;;6.47;;
6288;SDS011;3177;49.880;8.836;2023-03-07T15:20:47;8.83;;;5.83;;
6288;SDS011;3177;49.880;8.836;2023-03-07T15:23:17;8.00;;;5.67;;
6288;SDS011;3177;49.880;8.836;2023-03-07T15:25:46;12.30;;;7.10;;
6288;SDS011;3177;49.880;8.836;2023-03-07T15:28:17;7.97;;;6.33;;
6288;SDS011;3177;49.880;8.836;2023-03-07T15:30:46;7.60;;;6.20;;
6288;SDS011;3177;49.880;8.836;2023-03-07T15:33:15;7.30;;;5.60;;
6288;SDS011;3177;49.880;8.836;2023-03-07T15:36:04;5.17;;;4.47;;
6288;SDS011;3177;49.880;8.836;2023-03-07T15:38:32;5.37;;;4.83;;
6288;SDS011;3177;49.880;8.836;2023-03-07T15:40:59;5.03;;;4.40;;
6288;SDS011;3177;49.880;8.836;2023-03-07T15:43:27;5.60;;;5.00;;
6288;SDS011;3177;49.880;8.836;2023-03-07T15:46:00;7.20;;;4.47;;
6288;SDS011;3177;49.880;8.836;2023-03-07T15:48:29;6.87;;;4.40;;
6288;SDS011;3177;49.880;8.836;2023-03-07T15:51:00;4.70;;;4.30;;
6288;SDS011;3177;49.880;8.836;2023-03-07T15:53:30;5.77;;;4.90;;
6288;SDS011;3177;49.880;8.836;2023-03-07T15:55:58;7.03;;;5.03;;
6288;SDS011;3177;49.880;8.836;2023-03-07T15:58:26;5.90;;;4.50;;
6288;SDS011;3177;49.880;8.836;2023-03-07T16:01:04;4.97;;;4.50;;
6288;SDS011;3177;49.880;8.836;2023-03-07T16:03:31;5.10;;;4.60;;
6288;SDS011;3177;49.880;8.836;2023-03-07T16:05:59;7.10;;;5.67;;
6288;SDS011;3177;49.880;8.836;2023-03-07T16:08:27;4.27;;;3.80;;
6288;SDS011;3177;49.880;8.836;2023-03-07T16:10:55;4.20;;;3.90;;
6288;SDS011;3177;49.880;8.836;2023-03-07T16:13:24;7.27;;;5.40;;
6288;SDS011;3177;49.880;8.836;2023-03-07T16:15:57;6.87;;;5.67;;
6288;SDS011;3177;49.880;8.836;2023-03-07T16:18:26;6.67;;;5.43;;
6288;SDS011;3177;49.880;8.836;2023-03-07T16:20:53;7.23;;;5.27;;
6288;SDS011;3177;49.880;8.836;2023-03-07T16:23:21;7.43;;;5.67;;
6288;SDS011;3177;49.880;8.836;2023-03-07T16:25:48;6.80;;;5.33;;
6288;SDS011;3177;49.880;8.836;2023-03-07T16:28:15;3.93;;;3.53;;
6288;SDS011;3177;49.880;8.836;2023-03-07T16:30:42;6.60;;;5.27;;
6288;SDS011;3177;49.880;8.836;2023-03-07T16:33:10;8.90;;;6.50;;
6288;SDS011;3177;49.880;8.836;2023-03-07T16:35:39;6.17;;;5.33;;
6288;SDS011;3177;49.880;8.836;2023-03-07T16:38:06;8.47;;;5.07;;
6288;SDS011;3177;49.880;8.836;2023-03-07T16:40:34;4.33;;;3.80;;
6288;SDS011;3177;49.880;8.836;2023-03-07T16:43:08;8.63;;;5.07;;
6288;SDS011;3177;49.880;8.836;2023-03-07T16:45:46;6.10;;;5.50;;
6288;SDS011;3177;49.880;8.836;2023-03-07T16:48:13;6.97;;;5.70;;
6288;SDS011;3177;49.880;8.836;2023-03-07T16:50:43;8.03;;;7.10;;
6288;SDS011;3177;49.880;8.836;2023-03-07T16:53:10;8.13;;;6.40;;
6288;SDS011;3177;49.880;8.836;2023-03-07T16:55:37;7.07;;;6.17;;
6288;SDS011;3177;49.880;8.836;2023-03-07T16:58:05;6.87;;;6.13;;
6288;SDS011;3177;49.880;8.836;2023-03-07T17:00:32;6.60;;;4.70;;
6288;SDS011;3177;49.880;8.836;2023-03-07T17:03:00;7.63;;;5.90;;
6288;SDS011;3177;49.880;8.836;2023-03-07T17:05:27;4.63;;;3.53;;